Time;durP1;ratioP1;P1;durP2;ratioP2;P2;SDS_P1;SDS_P2;PMS_P1;PMS_P2;Temp;Humidity;BMP_temperature;BMP_pressure;BME280_temperature;BME280_humidity;BME280_pressure;Samples;Min_cycle;Max_cycle;Signal;HPM_P1;HPM_P2
2022/05/16 00:00:49;;;;;;;12.77;5.82;;;14.40;99.90;;;;;;4954308;28;20043;-64
2022/05/16 00:03:15;;;;;;;13.77;6.30;;;14.40;99.90;;;;;;4940650;28;20122;-63
2022/05/16 00:05:40;;;;;;;11.50;6.50;;;14.40;99.90;;;;;;4950094;29;20175;-64
2022/05/16 00:08:07;;;;;;;15.95;6.20;;;14.30;99.90;;;;;;4954148;28;20047;-63
2022/05/16 00:10:34;;;;;;;13.05;6.53;;;14.30;99.90;;;;;;4953994;28;20186;-64
2022/05/16 00:13:01;;;;;;;12.85;6.50;;;14.30;99.90;;;;;;4948655;28;20370;-64
2022/05/16 00:15:27;;;;;;;15.38;7.15;;;14.20;99.90;;;;;;4953531;28;20090;-64
2022/05/16 00:17:53;;;;;;;12.93;6.50;;;14.20;99.90;;;;;;4953975;28;20553;-65
2022/05/16 00:20:18;;;;;;;12.82;6.35;;;14.20;99.90;;;;;;4939962;28;20054;-64
2022/05/16 00:22:44;;;;;;;12.02;6.25;;;14.20;99.90;;;;;;4945008;29;20051;-63
2022/05/16 00:25:12;;;;;;;12.05;7.22;;;14.20;99.90;;;;;;4954011;28;20138;-63
2022/05/16 00:27:38;;;;;;;11.43;6.57;;;14.20;99.90;;;;;;4950772;28;20039;-64
2022/05/16 00:30:06;;;;;;;14.70;6.53;;;14.10;99.90;;;;;;4947213;28;20086;-64
2022/05/16 00:32:32;;;;;;;13.73;6.38;;;14.10;99.90;;;;;;4953414;28;20043;-63
2022/05/16 00:34:57;;;;;;;15.48;6.97;;;14.10;99.90;;;;;;4953451;28;20101;-64
2022/05/16 00:37:23;;;;;;;13.98;6.60;;;14.10;99.90;;;;;;4942221;28;20058;-63
2022/05/16 00:39:48;;;;;;;16.13;5.88;;;14.10;99.90;;;;;;4952550;28;20031;-63
2022/05/16 00:42:14;;;;;;;11.63;6.43;;;14.10;99.90;;;;;;4953941;28;20493;-63
2022/05/16 00:44:40;;;;;;;15.43;6.88;;;14.10;99.90;;;;;;4941777;28;20166;-64
2022/05/16 00:47:06;;;;;;;15.65;6.55;;;14.10;99.90;;;;;;4951546;28;20101;-63
2022/05/16 00:49:36;;;;;;;14.80;6.97;;;14.10;99.90;;;;;;4953285;28;20557;-63
2022/05/16 00:52:09;;;;;;;11.60;6.72;;;14.10;99.90;;;;;;4947365;28;20544;-64
2022/05/16 00:54:40;;;;;;;14.10;6.82;;;14.00;99.90;;;;;;4944720;29;20563;-63
2022/05/16 00:57:11;;;;;;;14.27;6.37;;;14.00;99.90;;;;;;4953350;28;20061;-64
2022/05/16 00:59:37;;;;;;;;;;;14.00;99.90;;;;;;4952466;28;20283;-65
2022/05/16 01:04:49;;;;;;;;;;;14.00;99.90;;;;;;4951370;29;19926;-64
2022/05/16 01:07:26;;;;;;;;;;;13.90;99.90;;;;;;4954012;28;19926;-64
2022/05/16 01:09:52;;;;;;;;;;;13.90;99.90;;;;;;4939634;29;19969;-63
2022/05/16 01:12:17;;;;;;;;;;;13.90;99.90;;;;;;4942015;29;20054;-64
2022/05/16 01:14:50;;;;;;;;;;;13.80;99.90;;;;;;4953220;28;19938;-63
2022/05/16 01:17:16;;;;;;;;;;;13.80;99.90;;;;;;4949642;28;19922;-64
2022/05/16 01:19:41;;;;;;;;;;;13.70;99.90;;;;;;4944604;28;19925;-64
2022/05/16 01:22:13;;;;;;;;;;;13.60;99.90;;;;;;4953625;28;19925;-64
2022/05/16 01:24:39;;;;;;;;;;;13.70;99.90;;;;;;4953565;28;19918;-64
2022/05/16 01:27:04;;;;;;;;;;;13.60;99.90;;;;;;4942656;28;19918;-65
2022/05/16 01:29:30;;;;;;;;;;;13.50;99.90;;;;;;4952763;28;19929;-64
2022/05/16 01:31:55;;;;;;;;;;;13.50;99.90;;;;;;4952402;29;20036;-63
2022/05/16 01:34:21;;;;;;;;;;;13.50;99.90;;;;;;4945926;28;19923;-64
2022/05/16 01:36:47;;;;;;;;;;;13.50;99.90;;;;;;4950825;29;19919;-63
2022/05/16 01:39:12;;;;;;;;;;;13.50;99.90;;;;;;4953302;28;19926;-64
2022/05/16 01:41:37;;;;;;;;;;;13.50;99.90;;;;;;4948648;28;20333;-63
2022/05/16 01:44:03;;;;;;;;;;;13.50;99.90;;;;;;4940994;28;19918;-65
2022/05/16 01:46:33;;;;;;;;;;;13.50;99.90;;;;;;4952804;28;19969;-63
2022/05/16 01:48:59;;;;;;;;;;;13.40;99.90;;;;;;4953229;28;19918;-65
2022/05/16 01:51:25;;;;;;;;;;;13.50;99.90;;;;;;4953524;28;19918;-64
2022/05/16 01:53:51;;;;;;;;;;;13.40;99.90;;;;;;4939109;28;19929;-63
2022/05/16 01:56:16;;;;;;;;;;;13.40;99.90;;;;;;4947804;28;19985;-64
2022/05/16 01:58:42;;;;;;;;;;;13.40;99.90;;;;;;4955809;28;19965;-64
2022/05/16 02:01:08;;;;;;;;;;;13.40;99.90;;;;;;4946169;28;19923;-64
2022/05/16 02:03:37;;;;;;;;;;;13.30;99.90;;;;;;4952796;29;20005;-64
2022/05/16 02:06:02;;;;;;;;;;;13.30;99.90;;;;;;4956970;28;19918;-64
2022/05/16 02:08:28;;;;;;;;;;;13.20;99.90;;;;;;4947606;29;20001;-64
2022/05/16 02:10:54;;;;;;;;;;;13.20;99.90;;;;;;4950921;29;19926;-64
2022/05/16 02:13:19;;;;;;;;;;;13.20;99.90;;;;;;4956076;28;19930;-64
2022/05/16 02:15:45;;;;;;;;;;;13.20;99.90;;;;;;4952858;28;21552;-63
2022/05/16 02:18:11;;;;;;;;;;;13.20;99.90;;;;;;4951828;29;19929;-64
2022/05/16 02:20:37;;;;;;;;;;;13.20;99.90;;;;;;4956227;28;19919;-64
2022/05/16 02:25:51;;;;;;;;;;;13.10;99.90;;;;;;4950769;28;19923;-64
2022/05/16 02:28:17;;;;;;;;;;;13.00;99.90;;;;;;4955288;28;19922;-64
2022/05/16 02:30:43;;;;;;;;;;;12.90;99.90;;;;;;4956673;28;19941;-63
2022/05/16 02:33:09;;;;;;;;;;;12.70;99.90;;;;;;4952193;28;19919;-66
2022/05/16 02:35:35;;;;;;;;;;;12.60;99.90;;;;;;4952100;29;20314;-64
2022/05/16 02:38:01;;;;;;;;;;;12.60;99.90;;;;;;4948432;29;19934;-64
2022/05/16 02:40:27;;;;;;;;;;;12.60;99.90;;;;;;4955032;28;19925;-64
2022/05/16 02:42:52;;;;;;;;;;;12.60;99.90;;;;;;4950010;29;20031;-64
2022/05/16 02:45:18;;;;;;;;;;;12.70;99.90;;;;;;4944592;28;20005;-64
2022/05/16 02:47:43;;;;;;;;;;;12.70;99.90;;;;;;4955071;29;20300;-63
2022/05/16 02:50:09;;;;;;;;;;;12.70;99.90;;;;;;4949242;28;19926;-64
2022/05/16 02:52:34;;;;;;;;;;;12.70;99.90;;;;;;4952826;28;20005;-64
2022/05/16 02:55:00;;;;;;;;;;;12.70;99.90;;;;;;4954667;28;19937;-63
2022/05/16 02:57:27;;;;;;;;;;;12.70;99.90;;;;;;4951620;28;19923;-63
2022/05/16 02:59:53;;;;;;;;;;;12.70;99.90;;;;;;4943601;28;20401;-63
2022/05/16 03:02:18;;;;;;;;;;;12.60;99.90;;;;;;4946591;29;19924;-63
2022/05/16 03:04:44;;;;;;;;;;;12.60;99.90;;;;;;4954251;28;19918;-63
2022/05/16 03:07:09;;;;;;;;;;;12.60;99.90;;;;;;4951068;28;19926;-64
2022/05/16 03:09:35;;;;;;;;;;;12.60;99.90;;;;;;4953718;28;20381;-63
2022/05/16 03:12:01;;;;;;;;;;;12.60;99.90;;;;;;4955008;28;19923;-63
2022/05/16 03:14:26;;;;;;;;;;;12.60;99.90;;;;;;4954592;28;20009;-63
2022/05/16 03:16:52;;;;;;;;;;;12.60;99.90;;;;;;4939804;28;20005;-64
2022/05/16 03:19:18;;;;;;;;;;;12.60;99.90;;;;;;4948685;28;19918;-64
2022/05/16 03:21:44;;;;;;;;;;;12.60;99.90;;;;;;4954451;28;19919;-65
2022/05/16 03:24:09;;;;;;;;;;;12.50;99.90;;;;;;4947392;28;19933;-63
2022/05/16 03:26:35;;;;;;;;;;;12.50;99.90;;;;;;4954254;28;20005;-63
2022/05/16 03:29:01;;;;;;;;;;;12.50;99.90;;;;;;4954486;28;19922;-63
2022/05/16 03:31:26;;;;;;;;;;;12.50;99.90;;;;;;4951254;28;19922;-64
2022/05/16 03:33:52;;;;;;;;;;;12.60;99.90;;;;;;4944560;28;19918;-64
2022/05/16 03:36:18;;;;;;;;;;;12.60;99.90;;;;;;4955013;29;19923;-63
2022/05/16 03:41:27;;;;;;;;;;;12.60;99.90;;;;;;4951994;28;19918;-63
2022/05/16 03:43:53;;;;;;;;;;;12.60;99.90;;;;;;4953894;28;19918;-63
2022/05/16 03:46:19;;;;;;;;;;;12.60;99.90;;;;;;4952908;28;19945;-65
2022/05/16 03:48:45;;;;;;;;;;;12.60;99.90;;;;;;4946492;29;19918;-64
2022/05/16 03:51:11;;;;;;;;;;;12.60;99.90;;;;;;4952742;28;19922;-63
2022/05/16 03:53:46;;;;;;;;;;;12.60;99.90;;;;;;4954670;28;19922;-65
2022/05/16 03:56:15;;;;;;;;;;;12.60;99.90;;;;;;4940372;28;19934;-64
2022/05/16 03:58:41;;;;;;;;;;;12.60;99.90;;;;;;4951172;29;19922;-64
2022/05/16 04:01:06;;;;;;;;;;;12.60;99.90;;;;;;4954275;28;19949;-65
2022/05/16 04:03:32;;;;;;;;;;;12.60;99.90;;;;;;4954207;28;19926;-64
2022/05/16 04:05:57;;;;;;;;;;;12.60;99.90;;;;;;4947774;28;19918;-64
2022/05/16 04:08:23;;;;;;;;;;;12.60;99.90;;;;;;4946760;28;20396;-63
2022/05/16 04:10:49;;;;;;;;;;;12.60;99.90;;;;;;4948817;28;19960;-64
2022/05/16 04:13:14;;;;;;;;;;;12.70;99.90;;;;;;4942431;28;19974;-65
2022/05/16 04:15:40;;;;;;;;;;;12.70;99.90;;;;;;4948026;29;19930;-64
2022/05/16 04:18:05;;;;;;;;;;;12.70;99.90;;;;;;4953034;29;20008;-64
2022/05/16 04:20:31;;;;;;;;;;;12.70;99.90;;;;;;4945918;28;20297;-64
2022/05/16 04:22:57;;;;;;;;;;;12.80;99.90;;;;;;4942424;29;19925;-64
2022/05/16 04:25:23;;;;;;;;;;;12.80;99.90;;;;;;4953900;28;19918;-65
2022/05/16 04:27:48;;;;;;;;;;;12.70;99.90;;;;;;4954219;28;20353;-65
2022/05/16 04:30:14;;;;;;;;;;;12.70;99.90;;;;;;4941761;28;19934;-65
2022/05/16 04:32:39;;;;;;;;;;;12.70;99.90;;;;;;4945041;29;19965;-65
2022/05/16 04:35:05;;;;;;;;;;;12.70;99.90;;;;;;4946830;28;20603;-65
2022/05/16 04:37:32;;;;;;;;;;;12.80;99.90;;;;;;4943265;29;19918;-65
2022/05/16 04:42:41;;;;;;;;;;;12.80;99.90;;;;;;4976050;23;19976;-65
2022/05/16 04:45:12;;;;;;;;;;;12.90;99.90;;;;;;4954891;28;19933;-65
2022/05/16 04:47:37;;;;;;;;;;;13.00;99.90;;;;;;4962551;28;20299;-63
2022/05/16 04:50:04;;;;;;;;;;;13.00;99.90;;;;;;4967999;28;20376;-64
2022/05/16 04:52:30;;;;;;;;;;;13.00;99.90;;;;;;4939450;28;19922;-64
2022/05/16 04:54:55;;;;;;;;;;;13.00;99.90;;;;;;4945028;29;20021;-64
2022/05/16 04:57:21;;;;;;;;;;;13.10;99.90;;;;;;4950309;28;19922;-64
2022/05/16 04:59:49;;;;;;;;;;;13.20;99.90;;;;;;4934413;28;19931;-63
2022/05/16 05:02:16;;;;;;;;;;;13.20;99.90;;;;;;4941465;28;19929;-62
2022/05/16 05:04:42;;;;;;;;;;;13.30;99.90;;;;;;4933160;29;19918;-63
2022/05/16 05:07:07;;;;;;;;;;;13.30;99.90;;;;;;4933292;29;19941;-64
2022/05/16 05:14:31;;;;;;;;;;;13.40;99.90;;;;;;4937949;28;19922;-64
2022/05/16 05:15:03;;;;;;;;;;;13.50;99.90;;;;;;4949992;28;19926;-64
2022/05/16 05:17:29;;;;;;;;;;;13.50;99.90;;;;;;4932770;28;19926;-64
2022/05/16 05:19:54;;;;;;;;;;;13.60;99.90;;;;;;4938599;29;20702;-65
2022/05/16 05:22:20;;;;;;;;;;;13.70;99.90;;;;;;4943878;29;19918;-65
2022/05/16 05:24:45;;;;;;;;;;;13.80;99.90;;;;;;4948520;28;20281;-65
2022/05/16 05:27:11;;;;;;;;;;;13.80;99.90;;;;;;4945367;28;19938;-65
2022/05/16 05:29:36;;;;;;;;;;;13.90;99.90;;;;;;4936468;29;19950;-64
2022/05/16 05:32:03;;;;;;;;;;;14.00;99.90;;;;;;4946393;28;20058;-65
2022/05/16 05:34:28;;;;;;;;;;;14.10;99.90;;;;;;4946135;29;19926;-64
2022/05/16 05:36:54;;;;;;;;;;;14.20;99.90;;;;;;4942620;28;20344;-65
2022/05/16 05:39:20;;;;;;;;;;;14.40;99.90;;;;;;4953317;28;19930;-65
2022/05/16 05:41:45;;;;;;;;;;;14.40;99.90;;;;;;4952898;28;19922;-64
2022/05/16 05:44:12;;;;;;;;;;;14.60;99.90;;;;;;4944508;28;19918;-64
2022/05/16 05:46:38;;;;;;;;;;;14.70;99.90;;;;;;4949264;29;19923;-64
2022/05/16 05:49:04;;;;;;;;;;;14.80;99.90;;;;;;4952919;28;19918;-63
2022/05/16 05:51:29;;;;;;;;;;;14.90;99.90;;;;;;4953597;28;19968;-64
2022/05/16 05:53:55;;;;;;;;;;;15.00;99.90;;;;;;4946995;28;19926;-67
2022/05/16 05:56:20;;;;;;;;;;;15.10;99.90;;;;;;4952538;28;19929;-66
2022/05/16 05:58:46;;;;;;;;;;;15.10;99.90;;;;;;4953486;28;19944;-64
2022/05/16 06:01:12;;;;;;;;;;;15.10;99.90;;;;;;4953240;28;19923;-63
2022/05/16 06:03:37;;;;;;;;;;;15.10;99.90;;;;;;4940720;28;20385;-63
2022/05/16 06:06:03;;;;;;;;;;;15.10;99.90;;;;;;4949370;28;19941;-64
2022/05/16 06:08:28;;;;;;;;;;;15.10;99.90;;;;;;4942201;28;19930;-64
2022/05/16 06:10:54;;;;;;;;;;;15.10;99.90;;;;;;4937087;29;19923;-64
2022/05/16 06:13:19;;;;;;;;;;;15.10;99.90;;;;;;4946487;28;20540;-65
2022/05/16 06:15:45;;;;;;;;;;;15.10;99.90;;;;;;4952987;28;20021;-65
2022/05/16 06:18:11;;;;;;;;;;;15.20;99.90;;;;;;4933162;28;19949;-65
2022/05/16 06:20:36;;;;;;;;;;;15.30;99.90;;;;;;4946237;29;19980;-63
2022/05/16 06:23:02;;;;;;;;;;;15.50;99.90;;;;;;4952006;28;19977;-64
2022/05/16 06:25:33;;;;;;;;;;;15.60;99.90;;;;;;4951781;28;20597;-62
2022/05/16 06:28:02;;;;;;;;;;;15.70;99.90;;;;;;4940519;29;20013;-64
2022/05/16 06:30:27;;;;;;;;;;;15.80;99.90;;;;;;4948075;29;19934;-64
2022/05/16 06:32:53;;;;;;;;;;;16.00;99.90;;;;;;4951882;28;19927;-63
2022/05/16 06:35:18;;;;;;;;;;;16.10;99.90;;;;;;4946274;28;19923;-64
2022/05/16 06:37:44;;;;;;;;;;;16.20;99.90;;;;;;4945455;29;19929;-64
2022/05/16 06:40:11;;;;;;;;;;;16.30;99.90;;;;;;4951898;28;19961;-64
2022/05/16 06:42:36;;;;;;;;;;;16.40;99.90;;;;;;4946101;28;20646;-64
2022/05/16 06:45:02;;;;;;;;;;;16.50;99.90;;;;;;4950580;28;20013;-64
2022/05/16 06:47:28;;;;;;;;;;;16.60;99.90;;;;;;4952264;28;19989;-64
2022/05/16 06:49:53;;;;;;;;;;;16.80;99.90;;;;;;4951980;28;20312;-64
2022/05/16 06:52:20;;;;;;;;;;;16.90;99.90;;;;;;4943444;28;19926;-63
2022/05/16 06:54:45;;;;;;;;;;;17.00;99.90;;;;;;4946845;29;20220;-64
2022/05/16 06:57:11;;;;;;;;;;;17.10;99.90;;;;;;4952217;28;19969;-64
2022/05/16 06:59:37;;;;;;;;;;;17.20;99.90;;;;;;4945847;28;19962;-65
2022/05/16 07:02:03;;;;;;;;;;;17.30;99.90;;;;;;4945627;29;20387;-63
2022/05/16 07:04:29;;;;;;;;;;;17.50;99.90;;;;;;4951278;28;19922;-64
2022/05/16 07:06:54;;;;;;;;;;;17.60;99.90;;;;;;4949769;28;19928;-65
2022/05/16 07:09:19;;;;;;;;;;;17.70;99.90;;;;;;4933386;29;20887;-63
2022/05/16 07:11:45;;;;;;;;;;;17.80;99.90;;;;;;4939318;29;19929;-64
2022/05/16 07:14:10;;;;;;;;;;;17.90;99.90;;;;;;4950882;28;19926;-64
2022/05/16 07:16:36;;;;;;;;;;;18.00;99.90;;;;;;4941085;28;19934;-64
2022/05/16 07:19:02;;;;;;;;;;;18.10;99.90;;;;;;4951075;28;20049;-64
2022/05/16 07:21:28;;;;;;;;;;;18.10;99.90;;;;;;4951594;28;19953;-64
2022/05/16 07:23:53;;;;;;;;;;;18.30;99.90;;;;;;4942209;28;19971;-65
2022/05/16 07:29:03;;;;;;;;;;;18.50;99.90;;;;;;4930531;29;20372;-62
2022/05/16 07:31:28;;;;;;;;;;;18.70;99.90;;;;;;4948209;29;19922;-64
2022/05/16 07:33:54;;;;;;;;;;;18.90;99.90;;;;;;4943395;29;19952;-65
2022/05/16 07:36:19;;;;;;;;;;;19.00;99.90;;;;;;4946694;29;19930;-65
2022/05/16 07:38:45;;;;;;;;;;;19.10;99.40;;;;;;4936225;28;19946;-65
2022/05/16 07:41:10;;;;;;;;;;;19.20;98.30;;;;;;4945733;29;19953;-64
2022/05/16 07:43:36;;;;;;;;;;;19.40;98.90;;;;;;4950147;28;19922;-65
2022/05/16 07:46:03;;;;;;;;;;;19.50;99.10;;;;;;4943101;28;19922;-65
2022/05/16 07:48:29;;;;;;;;;;;19.70;98.60;;;;;;4946635;28;20007;-64
2022/05/16 07:50:54;;;;;;;;;;;19.90;98.70;;;;;;4935950;28;19918;-65
2022/05/16 07:53:20;;;;;;;;;;;19.90;98.40;;;;;;4944835;28;20021;-65
2022/05/16 07:55:49;;;;;;;;;;;20.10;98.20;;;;;;4950082;28;20035;-65
2022/05/16 07:58:14;;;;;;;;;;;20.10;98.20;;;;;;4942745;28;19922;-64
2022/05/16 08:00:40;;;;;;;;;;;20.20;97.30;;;;;;4940786;29;20310;-65
2022/05/16 08:03:08;;;;;;;;;;;20.20;96.80;;;;;;4941710;28;19950;-65
2022/05/16 08:05:34;;;;;;;;;;;20.30;97.80;;;;;;4935425;29;20025;-65
2022/05/16 08:10:44;;;;;;;;;;;20.50;97.70;;;;;;4947184;29;19922;-65
2022/05/16 08:13:10;;;;;;;;;;;20.50;98.20;;;;;;4949669;28;19934;-65
2022/05/16 08:15:37;;;;;;;;;;;20.60;97.20;;;;;;4945942;29;19926;-65
2022/05/16 08:18:02;;;;;;;;;;;20.70;97.30;;;;;;4948921;28;19929;-64
2022/05/16 08:20:28;;;;;;;;;;;20.80;96.80;;;;;;4950569;28;19922;-65
2022/05/16 08:22:54;;;;;;;;;;;20.90;95.40;;;;;;4943549;28;20261;-65
2022/05/16 08:25:20;;;;;;;;;;;20.90;96.20;;;;;;4942786;29;19922;-64
2022/05/16 08:27:45;;;;;;;;;;;21.00;95.10;;;;;;4950049;28;19937;-65
2022/05/16 08:30:11;;;;;;;;;;;21.20;95.30;;;;;;4950617;28;19985;-65
2022/05/16 08:32:37;;;;;;;;;;;21.30;94.80;;;;;;4934267;28;20285;-64
2022/05/16 08:35:05;;;;;;;;;;;21.50;96.20;;;;;;4941947;28;19926;-65
2022/05/16 08:40:15;;;;;;;;;;;21.90;95.80;;;;;;4940582;29;19923;-63
2022/05/16 08:42:41;;;;;;;;;;;22.10;94.10;;;;;;4941428;29;19953;-63
2022/05/16 08:45:14;;;;;;;;;;;22.20;93.80;;;;;;4949002;28;19919;-63
2022/05/16 08:47:45;;;;;;;;;;;22.30;94.90;;;;;;4944065;28;20000;-62
2022/05/16 08:50:19;;;;;;;;;;;22.40;93.80;;;;;;4948709;28;19927;-62
2022/05/16 08:52:50;;;;;;;;;;;22.40;94.10;;;;;;4948622;28;19922;-61
2022/05/16 08:55:22;;;;;;;;;;;22.60;94.10;;;;;;4948151;29;20605;-63
2022/05/16 08:57:49;;;;;;;;;;;22.70;93.40;;;;;;4933507;28;19922;-63
2022/05/16 09:00:21;;;;;;;;;;;22.80;95.30;;;;;;4949094;28;20037;-62
2022/05/16 09:02:48;;;;;;;;;;;22.80;94.80;;;;;;4947941;28;19919;-63
2022/05/16 09:05:24;;;;;;;;;;;22.80;91.90;;;;;;4949596;28;19933;-63
2022/05/16 09:07:51;;;;;;;;;;;22.80;93.10;;;;;;4948906;28;19926;-63
2022/05/16 09:10:20;;;;;;;;;;;22.80;93.00;;;;;;4953169;28;19977;-62
2022/05/16 09:13:05;;;;;;;;;;;22.90;93.00;;;;;;4947317;28;20458;-60
2022/05/16 09:15:43;;;;;;;;;;;23.00;94.60;;;;;;4949126;29;20401;-63
2022/05/16 09:18:08;;;;;;;;;;;23.10;94.70;;;;;;4946234;29;20325;-62
2022/05/16 09:20:46;;;;;;;;;;;23.00;94.00;;;;;;4950767;28;19929;-63
2022/05/16 09:23:18;;;;;;;;;;;23.00;93.40;;;;;;4941421;29;19926;-62
2022/05/16 09:25:59;;;;;;;;;;;23.00;94.10;;;;;;4951485;28;19922;-63
2022/05/16 09:28:34;;;;;;;;;;;23.10;94.60;;;;;;4953355;28;19926;-63
2022/05/16 09:31:21;;;;;;;;;;;23.20;96.30;;;;;;4942578;28;19923;-63
2022/05/16 09:33:48;;;;;;;;;;;23.40;94.30;;;;;;4951773;28;19922;-63
2022/05/16 09:36:15;;;;;;;;;;;23.60;91.40;;;;;;4952456;28;20369;-63
2022/05/16 09:38:44;;;;;;;;;;;23.90;86.70;;;;;;4943866;28;19989;-62
2022/05/16 09:41:15;;;;;;;;;;;24.10;91.70;;;;;;4940078;28;19922;-63
2022/05/16 09:43:45;;;;;;;;;;;24.20;93.40;;;;;;4942404;28;19926;-63
2022/05/16 09:46:22;;;;;;;;;;;24.30;93.50;;;;;;4934539;28;19927;-62
2022/05/16 09:48:54;;;;;;;;;;;24.60;89.90;;;;;;4942101;28;20634;-60
2022/05/16 09:51:20;;;;;;;;;;;24.80;91.50;;;;;;4943557;29;19929;-62
2022/05/16 09:53:46;;;;;;;;;;;24.90;90.60;;;;;;4951121;28;19922;-63
2022/05/16 09:56:14;;;;;;;;;;;24.90;87.80;;;;;;4952045;28;19985;-63
2022/05/16 09:58:48;;;;;;;;;;;25.00;90.40;;;;;;4940623;28;19974;-63
2022/05/16 10:01:27;;;;;;;;;;;25.40;88.50;;;;;;4951330;28;20269;-63
2022/05/16 10:03:52;;;;;;;;;;;25.80;90.30;;;;;;4940193;29;19930;-62
2022/05/16 10:06:32;;;;;;;;;;;26.00;88.10;;;;;;4949886;28;19929;-62
2022/05/16 10:09:03;;;;;;;;;;;25.80;72.20;;;;;;4937671;28;20017;-63
2022/05/16 10:11:29;;;;;;;;;;;25.90;77.80;;;;;;4947215;29;19918;-63
2022/05/16 10:13:55;;;;;;;;;;;25.90;74.40;;;;;;4948373;29;20016;-62
2022/05/16 10:16:22;;;;;;;;;;;26.10;73.70;;;;;;4946045;28;20347;-64
2022/05/16 10:18:51;;;;;;;;;;;26.40;79.20;;;;;;4950318;28;19922;-63
2022/05/16 10:21:41;;;;;;;;;;;26.60;82.10;;;;;;4937009;29;19922;-62
2022/05/16 10:24:08;;;;;;;;;;;26.70;81.60;;;;;;4924927;29;19938;-63
2022/05/16 10:26:43;;;;;;;;;;;26.70;79.00;;;;;;4950979;28;20432;-63
2022/05/16 10:29:16;;;;;;;;;;;26.50;74.30;;;;;;4951664;28;19919;-63
2022/05/16 10:34:31;;;;;;;;;;;26.00;78.30;;;;;;4946875;29;20373;-63
2022/05/16 10:36:58;;;;;;;;;;;25.80;79.20;;;;;;4945568;28;19934;-63
2022/05/16 10:39:25;;;;;;;;;;;25.40;81.10;;;;;;4944737;28;19919;-63
2022/05/16 10:41:56;;;;;;;;;;;25.30;87.90;;;;;;4964989;23;19949;-63
2022/05/16 10:44:44;;;;;;;;;;;25.00;84.10;;;;;;4969677;28;20308;-62
2022/05/16 10:47:21;;;;;;;;;;;24.70;84.90;;;;;;4967014;28;19957;-60
2022/05/16 10:50:08;;;;;;;;;;;24.40;84.50;;;;;;4958292;28;19922;-62
2022/05/16 10:52:36;;;;;;;;;;;24.30;91.80;;;;;;4948117;28;19954;-63
2022/05/16 10:55:02;;;;;;;;;;;24.20;92.60;;;;;;4950145;29;19930;-60
2022/05/16 10:57:29;;;;;;;;;;;24.00;88.30;;;;;;4951242;28;19931;-63
2022/05/16 11:00:07;;;;;;;;;;;23.90;91.80;;;;;;4949385;28;19926;-63
2022/05/16 11:02:52;;;;;;;;;;;23.80;91.00;;;;;;4949180;28;19966;-63
2022/05/16 11:05:23;;;;;;;;;;;23.60;92.00;;;;;;4951186;28;19977;-63
2022/05/16 11:08:08;;;;;;;;;;;23.60;92.60;;;;;;4951032;28;19985;-63
2022/05/16 11:10:38;;;;;;;;;;;23.60;93.10;;;;;;4947433;29;19974;-62
2022/05/16 11:13:16;;;;;;;;;;;23.50;94.00;;;;;;4946562;29;20395;-63
2022/05/16 11:15:44;;;;;;;;;;;23.30;95.50;;;;;;4951149;28;19929;-62
2022/05/16 11:18:23;;;;;;;;;;;23.30;94.80;;;;;;4945124;28;20424;-62
2022/05/16 11:21:08;;;;;;;;;;;23.30;96.60;;;;;;4948668;28;19929;-62
2022/05/16 11:23:36;;;;;;;;;;;23.20;95.40;;;;;;4946447;29;19929;-63
2022/05/16 11:26:06;;;;;;;;;;;23.10;96.70;;;;;;4947005;29;19926;-64
2022/05/16 11:28:35;;;;;;;;;;;23.10;97.50;;;;;;4948962;29;20392;-63
2022/05/16 11:31:13;;;;;;;;;;;23.00;97.10;;;;;;4947991;29;20475;-64
2022/05/16 11:33:44;;;;;;;;;;;23.10;97.60;;;;;;4947296;29;19980;-62
2022/05/16 11:36:27;;;;;;;;;;;23.10;96.80;;;;;;4947764;29;19978;-63
2022/05/16 11:38:55;;;;;;;;;;;23.20;97.20;;;;;;4949409;29;19933;-63
2022/05/16 11:41:24;;;;;;;;;;;23.30;98.30;;;;;;4946160;29;19922;-61
2022/05/16 11:43:51;;;;;;;;;;;23.40;98.30;;;;;;4938583;29;20028;-62
2022/05/16 11:46:35;;;;;;;;;;;23.50;98.80;;;;;;4948506;29;19922;-63
2022/05/16 11:49:10;;;;;;;;;;;23.50;98.90;;;;;;4950282;28;19961;-63
2022/05/16 11:51:36;;;;;;;;;;;23.60;95.90;;;;;;4950514;28;20017;-63
2022/05/16 11:54:04;;;;;;;;;;;23.60;96.90;;;;;;4946653;28;19930;-64
2022/05/16 12:02:13;;;;;;;;;;;23.90;96.80;;;;;;4949229;29;19926;-63
2022/05/16 12:04:43;;;;;;;;;;;24.10;95.20;;;;;;4946438;29;20344;-62
2022/05/16 12:07:16;;;;;;;;;;;24.30;94.40;;;;;;4949961;28;19922;-63
2022/05/16 12:09:53;;;;;;;;;;;24.50;95.70;;;;;;4947296;28;20420;-62
2022/05/16 12:12:27;;;;;;;;;;;24.60;94.40;;;;;;4944035;29;19922;-63
2022/05/16 12:15:11;;;;;;;;;;;24.70;94.10;;;;;;4949308;28;19948;-63
2022/05/16 12:17:48;;;;;;;;;;;24.70;94.60;;;;;;4946388;28;19929;-63
2022/05/16 12:20:14;;;;;;;;;;;24.80;94.70;;;;;;4941680;29;20340;-64
2022/05/16 12:22:39;;;;;;;;;;;24.80;94.40;;;;;;4947435;28;19922;-63
2022/05/16 12:25:27;;;;;;;;;;;24.60;95.00;;;;;;4947680;28;20403;-63
2022/05/16 12:28:11;;;;;;;;;;;24.50;95.30;;;;;;4945347;28;20377;-62
2022/05/16 12:30:47;;;;;;;;;;;24.50;95.40;;;;;;4947603;28;20311;-62
2022/05/16 12:33:32;;;;;;;;;;;24.40;96.30;;;;;;4944486;28;19941;-61
2022/05/16 12:35:58;;;;;;;;;;;24.30;95.70;;;;;;4946952;29;19922;-62
2022/05/16 12:38:25;;;;;;;;;;;24.30;94.40;;;;;;4948400;28;19929;-63
2022/05/16 12:41:05;;;;;;;;;;;24.30;95.90;;;;;;4949132;28;19972;-63
2022/05/16 12:43:50;;;;;;;;;;;24.30;95.10;;;;;;4947273;29;19918;-62
2022/05/16 12:46:28;;;;;;;;;;;24.40;95.10;;;;;;4949292;28;19923;-63
2022/05/16 12:49:15;;;;;;;;;;;24.60;94.60;;;;;;4946601;28;19922;-62
2022/05/16 12:51:40;;;;;;;;;;;24.80;93.80;;;;;;4947786;29;19942;-62
2022/05/16 12:54:35;;;;;;;;;;;24.90;95.10;;;;;;4948220;28;19922;-62
2022/05/16 12:57:04;;;;;;;;;;;24.90;93.80;;;;;;4937806;29;20377;-61
2022/05/16 12:59:39;;;;;;;;;;;24.90;94.00;;;;;;4942610;28;19964;-64
2022/05/16 13:02:19;;;;;;;;;;;24.90;94.10;;;;;;4947473;29;19923;-63
2022/05/16 13:05:05;;;;;;;;;;;24.80;94.20;;;;;;4947164;28;19961;-63
2022/05/16 13:07:49;;;;;;;;;;;24.90;95.00;;;;;;4945871;28;19919;-64
2022/05/16 13:10:35;;;;;;;;;;;24.90;94.00;;;;;;4941897;29;20529;-64
2022/05/16 13:13:09;;;;;;;;;;;25.00;93.60;;;;;;4925293;29;19982;-64
2022/05/16 13:15:41;;;;;;;;;;;25.00;94.40;;;;;;4940842;29;19953;-63
2022/05/16 13:18:11;;;;;;;;;;;25.10;93.90;;;;;;4946077;28;19922;-63
2022/05/16 13:20:40;;;;;;;;;;;25.00;94.80;;;;;;4946012;28;19929;-65
2022/05/16 13:23:06;;;;;;;;;;;25.00;95.40;;;;;;4945161;28;19949;-63
2022/05/16 13:25:31;;;;;;;;;;;25.00;93.80;;;;;;4947543;29;19926;-64
2022/05/16 13:30:50;;;;;;;;;;;25.20;95.40;;;;;;4923417;29;20404;-65
2022/05/16 13:33:36;;;;;;;;;;;25.50;93.70;;;;;;4947607;29;19969;-65
2022/05/16 13:36:13;;;;;;;;;;;25.50;92.00;;;;;;4948268;29;19926;-64
2022/05/16 13:38:38;;;;;;;;;;;25.50;92.70;;;;;;4945134;28;19971;-64
2022/05/16 13:41:04;;;;;;;;;;;25.50;92.10;;;;;;4945541;29;19968;-65
2022/05/16 13:43:30;;;;;;;;;;;25.60;93.50;;;;;;4945763;28;19949;-64
2022/05/16 13:46:06;;;;;;;;;;;25.60;92.30;;;;;;4947444;28;19926;-64
2022/05/16 13:48:32;;;;;;;;;;;25.70;92.30;;;;;;4948391;28;20365;-65
2022/05/16 13:50:59;;;;;;;;;;;25.80;93.00;;;;;;4948458;28;19929;-65
2022/05/16 13:53:26;;;;;;;;;;;25.90;91.20;;;;;;4945766;28;20300;-62
2022/05/16 13:55:52;;;;;;;;;;;26.30;93.40;;;;;;4949430;28;19926;-64
2022/05/16 13:58:18;;;;;;;;;;;26.60;91.40;;;;;;4951730;28;20435;-65
2022/05/16 14:00:48;;;;;;;;;;;26.50;90.30;;;;;;4951643;28;19919;-65
2022/05/16 14:03:19;;;;;;;;;;;26.40;90.50;;;;;;4951816;28;20381;-65
2022/05/16 14:05:44;;;;;;;;;;;26.20;91.20;;;;;;4945189;28;20051;-65
2022/05/16 14:08:30;;;;;;;;;;;26.10;91.90;;;;;;4951345;29;19977;-65
2022/05/16 14:10:56;;;;;;;;;;;26.10;91.60;;;;;;4951816;28;20376;-65
2022/05/16 14:13:24;;;;;;;;;;;26.30;91.60;;;;;;4948229;28;19981;-65
2022/05/16 14:16:06;;;;;;;;;;;26.50;92.30;;;;;;4948728;28;19919;-64
2022/05/16 14:18:37;;;;;;;;;;;26.70;91.40;;;;;;4947489;29;19961;-64
2022/05/16 14:21:14;;;;;;;;;;;26.90;83.20;;;;;;4951761;28;20378;-64
2022/05/16 14:23:42;;;;;;;;;;;27.10;87.00;;;;;;4951519;28;20397;-65
2022/05/16 14:26:09;;;;;;;;;;;27.00;90.60;;;;;;4948216;28;19922;-65
2022/05/16 14:28:42;;;;;;;;;;;26.80;90.50;;;;;;4951993;28;20360;-64
2022/05/16 14:31:20;;;;;;;;;;;26.40;87.80;;;;;;4948568;28;19973;-64
2022/05/16 14:33:50;;;;;;;;;;;26.10;90.60;;;;;;4950469;28;20376;-63
2022/05/16 14:36:22;;;;;;;;;;;25.80;89.80;;;;;;4951692;28;19929;-64
2022/05/16 14:38:48;;;;;;;;;;;25.60;92.30;;;;;;4947971;28;20612;-61
2022/05/16 14:41:15;;;;;;;;;;;25.40;91.80;;;;;;4950769;28;19918;-64
2022/05/16 14:43:53;;;;;;;;;;;25.30;91.70;;;;;;4950669;28;20460;-65
2022/05/16 14:49:03;;;;;;;;;;;25.00;92.90;;;;;;4950704;28;19926;-65
2022/05/16 14:51:30;;;;;;;;;;;24.80;94.00;;;;;;4951093;28;20027;-64
2022/05/16 14:53:56;;;;;;;;;;;24.60;94.80;;;;;;4949832;28;19927;-63